Braddock, North Dakota
Current Conditions -  °F | °C
As of 5:55 PM on Wednesday 22 Oct 2014 (Local Time) from K7L2 Reporting Station
Clear Clear  
Wind Chill: 64°   Ceiling: Unl
Heat Index: 64°   Visibility: 10mi
Dew Point: 41°   Wind: 9mph
Humidity: 42%   Direction: 260°W
Pressure: 29.87"   Gusts: NA
Location:  46.56°N, 100.09°W
Report Text: K7L2 222255Z AUTO 26008KT 10SM CLR 18/05 A2987 RMK AO2 PWINO PNO
Loading
Personal Weather Stations






























Interactive Weather Map
Tropical Storm Tracking
New forecast layout! Learn more

10-Day Weather Forecast

Advertisements
Track Severe Weather on mobile